Time;durP1;ratioP1;P1;durP2;ratioP2;P2;SDS_P1;SDS_P2;PMS_P1;PMS_P2;Temp;Humidity;BMP_temperature;BMP_pressure;BME280_temperature;BME280_humidity;BME280_pressure;Samples;Min_cycle;Max_cycle;Signal;HPM_P1;HPM_P2
2022/10/02 00:02:36;;;;;;;1.95;1.75;;;;;;;10.62;80.82;96643.42;1498374;94;26158;-76
2022/10/02 00:05:12;;;;;;;1.90;1.70;;;;;;;10.63;80.80;96645.56;1498134;94;26563;-76
2022/10/02 00:10:43;;;;;;;1.85;1.50;;;;;;;10.67;80.78;96646.76;1874240;75;25558;-77
2022/10/02 00:13:28;;;;;;;2.05;1.62;;;;;;;10.63;80.73;96650.95;1831584;78;25636;-75
2022/10/02 00:15:55;;;;;;;1.90;1.70;;;;;;;10.64;80.76;96648.56;1834097;77;28134;-76
2022/10/02 00:18:27;;;;;;;1.70;1.60;;;;;;;10.65;80.82;96658.30;1833912;78;25754;-76
2022/10/02 00:21:11;;;;;;;3.10;1.75;;;;;;;10.67;80.80;96662.95;1805553;78;25854;-76
2022/10/02 00:23:45;;;;;;;2.92;1.70;;;;;;;10.66;80.64;96654.55;1804093;79;26436;-75
2022/10/02 00:26:40;;;;;;;1.77;1.67;;;;;;;10.68;80.71;96655.16;1805839;79;25804;-76
2022/10/02 00:29:39;;;;;;;2.62;1.80;;;;;;;10.71;80.71;96657.41;1805507;79;27357;-77
2022/10/02 00:32:20;;;;;;;3.30;1.30;;;;;;;10.72;80.69;96659.05;1805530;79;25930;-74
2022/10/02 00:35:18;;;;;;;2.22;1.85;;;;;;;10.73;80.64;96663.40;1805952;79;25769;-75
2022/10/02 00:38:14;;;;;;;4.08;1.55;;;;;;;10.75;80.62;96669.36;1805613;79;25793;-75
2022/10/02 00:41:06;;;;;;;2.67;1.77;;;;;;;10.75;80.60;96668.02;1797820;79;25713;-79
2022/10/02 00:43:41;;;;;;;1.43;1.33;;;;;;;10.77;80.57;96665.91;1805814;78;27357;-76
2022/10/02 00:46:53;;;;;;;2.52;1.75;;;;;;;10.78;80.44;96666.21;1802611;79;25826;-76
2022/10/02 00:49:31;;;;;;;3.33;1.55;;;;;;;10.79;80.43;96661.94;1801825;79;25775;-75
2022/10/02 00:52:35;;;;;;;4.58;1.60;;;;;;;10.80;80.34;96672.20;1766874;80;25862;-76
2022/10/02 00:55:34;;;;;;;3.02;1.92;;;;;;;10.80;80.22;96668.16;1805756;78;25764;-76
2022/10/02 00:58:29;;;;;;;1.98;1.67;;;;;;;10.81;80.33;96672.51;1746169;81;27497;-75
2022/10/02 01:01:18;;;;;;;1.30;1.20;;;;;;;10.82;80.33;96670.11;1706236;83;25808;-75
2022/10/02 01:03:55;;;;;;;2.05;1.70;;;;;;;10.84;80.30;96674.75;1703808;83;25779;-76
2022/10/02 01:06:27;;;;;;;2.58;1.60;;;;;;;10.83;80.24;96674.45;1700090;84;25741;-77
2022/10/02 01:08:54;;;;;;;2.27;1.45;;;;;;;10.86;80.27;96675.35;1672093;83;25833;-76
2022/10/02 01:11:25;;;;;;;2.60;1.55;;;;;;;10.86;80.23;96683.45;1698111;83;27386;-75
2022/10/02 01:13:52;;;;;;;1.77;1.67;;;;;;;10.87;80.18;96687.77;1703406;84;25771;-76
2022/10/02 01:16:19;;;;;;;1.62;1.50;;;;;;;10.91;80.23;96687.62;1669916;84;25826;-76
2022/10/02 01:18:46;;;;;;;2.90;1.45;;;;;;;10.91;80.20;96693.02;1748012;81;25732;-75
2022/10/02 01:21:30;;;;;;;2.10;1.37;;;;;;;10.90;80.12;96687.31;1704174;83;25725;-75
2022/10/02 01:24:08;;;;;;;1.50;1.40;;;;;;;10.92;80.05;96689.27;1686050;84;28152;-77
2022/10/02 01:26:34;;;;;;;3.33;1.60;;;;;;;10.93;79.97;96685.52;1682020;85;25714;-75
2022/10/02 01:29:01;;;;;;;2.22;1.45;;;;;;;10.93;80.00;96671.19;1685325;85;25794;-75
2022/10/02 01:31:29;;;;;;;3.30;1.50;;;;;;;10.94;79.99;96675.01;1684013;85;25727;-76
2022/10/02 01:33:55;;;;;;;2.08;1.40;;;;;;;10.95;79.88;96680.71;1681257;85;26114;-76
2022/10/02 01:36:22;;;;;;;1.65;1.40;;;;;;;10.97;79.87;96685.36;1773678;80;28176;-76
2022/10/02 01:38:51;;;;;;;5.97;1.82;;;;;;;10.95;79.92;96687.45;1773404;80;25769;-76
2022/10/02 01:41:17;;;;;;;2.30;1.70;;;;;;;10.97;79.93;96690.76;1778973;80;25661;-76
2022/10/02 01:43:58;;;;;;;3.08;1.45;;;;;;;10.99;79.82;96694.02;1737972;82;25777;-76
2022/10/02 01:46:44;;;;;;;4.30;1.80;;;;;;;11.02;79.74;96699.50;1737989;82;25866;-77
2022/10/02 01:49:56;;;;;;;2.95;1.60;;;;;;;11.03;79.67;96700.63;1748809;79;27387;-76
2022/10/02 01:52:49;;;;;;;3.05;1.70;;;;;;;11.04;79.62;96704.97;1823484;78;25768;-75
2022/10/02 01:55:25;;;;;;;;;;;;;;;11.04;79.59;96709.02;1824301;78;25242;-75
2022/10/02 01:58:31;;;;;;;2.25;1.55;;;;;;;11.07;79.42;96713.14;1821450;78;25654;-75
2022/10/02 02:01:18;;;;;;;1.57;1.42;;;;;;;11.04;79.50;96726.58;1821291;78;25699;-75
2022/10/02 02:03:56;;;;;;;1.62;1.27;;;;;;;11.03;79.51;96720.05;1735854;81;27380;-75
2022/10/02 02:06:37;;;;;;;3.08;1.62;;;;;;;11.03;79.47;96730.33;1731882;81;25942;-74
2022/10/02 02:09:17;;;;;;;1.40;1.30;;;;;;;11.04;79.53;96735.20;1731843;81;25845;-76
2022/10/02 02:11:52;;;;;;;3.02;2.00;;;;;;;11.06;79.58;96738.50;1651119;86;25750;-75
2022/10/02 02:14:32;;;;;;;2.50;1.60;;;;;;;11.05;79.59;96739.55;1595371;89;25833;-74
2022/10/02 02:17:16;;;;;;;3.42;1.10;;;;;;;11.03;79.62;96742.48;1596263;88;27402;-74
2022/10/02 02:19:51;;;;;;;5.03;2.30;;;;;;;11.00;79.58;96738.88;1566974;91;25767;-75
2022/10/02 02:22:25;;;;;;;4.37;1.92;;;;;;;11.00;79.70;96736.18;1567333;91;25885;-74
2022/10/02 02:25:03;;;;;;;1.85;1.55;;;;;;;10.98;79.81;96741.02;1567261;91;26533;-75
2022/10/02 02:27:34;;;;;;;4.85;1.60;;;;;;;10.99;79.81;96744.54;1567663;91;26954;-74
2022/10/02 02:30:10;;;;;;;2.15;1.47;;;;;;;10.97;79.78;96744.77;1567494;91;27478;-74
2022/10/02 02:32:51;;;;;;;3.60;1.30;;;;;;;10.96;79.87;96750.39;1567373;91;25857;-75
2022/10/02 02:35:26;;;;;;;2.60;1.30;;;;;;;10.92;79.98;96751.89;1567506;91;25831;-76
2022/10/02 02:37:58;;;;;;;1.25;1.10;;;;;;;10.87;80.06;96749.87;1536741;91;26538;-75
2022/10/02 02:40:28;;;;;;;2.58;1.50;;;;;;;10.86;80.23;96752.30;1554316;90;25829;-76
2022/10/02 02:43:02;;;;;;;4.03;1.55;;;;;;;10.88;80.36;96756.09;1586844;90;26885;-75
2022/10/02 02:45:34;;;;;;;2.08;1.60;;;;;;;10.87;80.34;96763.37;1584352;90;25854;-75
2022/10/02 02:48:12;;;;;;;2.17;1.50;;;;;;;10.86;80.43;96755.00;1561113;91;25817;-77
2022/10/02 02:50:46;;;;;;;2.47;1.50;;;;;;;10.87;80.42;96762.02;1558740;91;25829;-76
2022/10/02 02:53:23;;;;;;;1.60;1.50;;;;;;;10.82;80.60;96767.30;1560861;91;25334;-75
2022/10/02 02:55:57;;;;;;;3.85;2.00;;;;;;;10.77;80.83;96763.09;1523753;92;28075;-75
2022/10/02 02:58:47;;;;;;;4.42;2.80;;;;;;;10.75;80.74;96770.06;1546285;92;25842;-76
2022/10/02 03:01:13;;;;;;;3.95;2.37;;;;;;;10.74;80.72;96770.32;1545977;92;25810;-75
2022/10/02 03:03:40;;;;;;;6.12;3.35;;;;;;;10.72;80.79;96771.89;1546168;92;25780;-75
2022/10/02 03:06:18;;;;;;;4.58;2.10;;;;;;;10.72;80.80;96764.32;1546366;92;25758;-75
2022/10/02 03:08:49;;;;;;;5.20;2.12;;;;;;;10.74;80.78;96766.27;1559173;89;27435;-75
2022/10/02 03:11:46;;;;;;;4.67;2.20;;;;;;;10.75;80.77;96770.59;1587924;89;25820;-76
2022/10/02 03:14:52;;;;;;;3.37;1.87;;;;;;;10.77;80.80;96773.37;1582451;90;25819;-75
2022/10/02 03:17:54;;;;;;;2.87;2.15;;;;;;;10.78;80.90;96774.19;1595096;89;25830;-75
2022/10/02 03:20:38;;;;;;;1.95;1.80;;;;;;;10.79;80.88;96778.55;1601122;89;25646;-75
2022/10/02 03:23:34;;;;;;;2.10;1.90;;;;;;;10.81;80.85;96772.40;1607316;89;27507;-75
2022/10/02 03:26:14;;;;;;;3.90;1.95;;;;;;;10.83;80.84;96778.39;1610032;89;25913;-75
2022/10/02 03:28:54;;;;;;;2.12;1.40;;;;;;;10.86;80.86;96786.05;1610435;89;25846;-75
2022/10/02 03:31:23;;;;;;;1.60;1.50;;;;;;;10.86;80.77;96787.40;1610554;89;25923;-76
2022/10/02 03:33:52;;;;;;;6.42;1.85;;;;;;;10.85;80.62;96791.15;1609860;88;25644;-75
2022/10/02 03:36:24;;;;;;;4.28;1.95;;;;;;;10.87;80.59;96786.88;1585460;89;27464;-74
2022/10/02 03:38:54;;;;;;;2.75;1.52;;;;;;;10.89;80.47;96790.14;1585262;90;25945;-75
2022/10/02 03:41:21;;;;;;;2.45;1.40;;;;;;;10.90;80.29;96794.50;1585157;90;25942;-75
2022/10/02 03:43:47;;;;;;;2.62;1.47;;;;;;;10.91;80.22;96796.97;1585168;90;25746;-76
2022/10/02 03:46:14;;;;;;;2.62;1.77;;;;;;;10.91;80.14;96795.62;1622602;85;25758;-77
2022/10/02 03:48:40;;;;;;;2.05;1.85;;;;;;;10.91;80.11;96796.97;1656043;86;27449;-77
2022/10/02 03:51:07;;;;;;;3.15;1.52;;;;;;;10.94;80.09;96801.09;1673697;83;25888;-75
2022/10/02 03:53:34;;;;;;;2.08;1.30;;;;;;;10.94;79.99;96805.97;1793872;78;25768;-76
2022/10/02 03:56:14;;;;;;;1.75;1.50;;;;;;;10.97;79.90;96810.92;1821306;78;25807;-75
2022/10/02 03:58:45;;;;;;;2.08;1.77;;;;;;;10.98;79.81;96817.98;1818732;78;25775;-75
2022/10/02 04:01:25;;;;;;;2.02;1.50;;;;;;;10.96;79.59;96806.58;1820926;78;28256;-77
2022/10/02 04:04:06;;;;;;;4.20;1.62;;;;;;;10.97;79.59;96821.73;1814842;78;25715;-75
2022/10/02 04:07:01;;;;;;;3.40;1.47;;;;;;;10.97;79.55;96819.55;1733526;82;25787;-75
2022/10/02 04:09:32;;;;;;;2.25;1.20;;;;;;;10.97;79.43;96827.66;1705881;82;26550;-75
2022/10/02 04:12:10;;;;;;;3.02;1.40;;;;;;;10.97;79.24;96831.18;1703121;84;25743;-77
2022/10/02 04:14:54;;;;;;;6.92;1.50;;;;;;;10.98;78.99;96816.63;1675957;85;27412;-75
2022/10/02 04:17:28;;;;;;;6.10;1.22;;;;;;;10.99;78.86;96835.80;1675435;85;25830;-75
2022/10/02 04:19:59;;;;;;;3.30;1.50;;;;;;;11.01;78.82;96823.42;1671079;85;25844;-74
2022/10/02 04:22:38;;;;;;;4.80;1.55;;;;;;;11.02;78.81;96831.30;1674424;85;25786;-75
2022/10/02 04:25:19;;;;;;;2.45;1.40;;;;;;;11.04;78.71;96843.23;1674988;85;25791;-75
2022/10/02 04:28:16;;;;;;;1.70;1.22;;;;;;;11.05;78.65;96837.61;1677580;85;27381;-76
2022/10/02 04:30:42;;;;;;;2.25;1.37;;;;;;;11.06;78.58;96839.26;1675508;85;25779;-77
2022/10/02 04:33:23;;;;;;;1.87;1.30;;;;;;;11.07;78.40;96843.61;1677843;85;25807;-75
2022/10/02 04:36:07;;;;;;;2.90;1.52;;;;;;;11.07;78.47;96847.66;1677616;85;26030;-76
2022/10/02 04:39:04;;;;;;;1.55;1.30;;;;;;;11.09;78.42;96845.56;1677745;85;25916;-75
2022/10/02 04:44:01;;;;;;;2.92;1.10;;;;;;;11.17;78.20;96852.52;1874395;76;25497;-74
2022/10/02 04:46:53;;;;;;;7.25;1.40;;;;;;;11.12;78.25;96863.16;1839883;77;25761;-75
2022/10/02 04:49:46;;;;;;;3.45;1.30;;;;;;;11.11;78.06;96868.27;1845539;77;27421;-77
2022/10/02 04:52:42;;;;;;;2.87;1.45;;;;;;;11.11;78.09;96879.90;1845174;77;25567;-75
2022/10/02 04:55:17;;;;;;;4.37;1.20;;;;;;;11.12;77.97;96874.80;1840019;77;25729;-75
2022/10/02 04:58:07;;;;;;;3.22;1.52;;;;;;;11.13;77.86;96892.66;1841128;77;25734;-75
2022/10/02 05:00:47;;;;;;;2.80;1.40;;;;;;;11.15;77.83;96885.68;1742139;81;25989;-74
2022/10/02 05:03:34;;;;;;;2.40;1.10;;;;;;;11.13;77.63;96887.25;1739983;82;27398;-75
2022/10/02 05:06:21;;;;;;;4.92;1.55;;;;;;;11.16;77.62;96900.31;1731114;82;25962;-75
2022/10/02 05:09:12;;;;;;;5.70;1.30;;;;;;;11.14;77.50;96895.66;1728992;82;26893;-74
2022/10/02 05:12:02;;;;;;;6.28;1.45;;;;;;;11.14;77.41;96900.23;1732609;82;25838;-75
2022/10/02 05:15:01;;;;;;;3.08;1.35;;;;;;;11.15;77.33;96893.26;1732236;82;25807;-76
2022/10/02 05:17:52;;;;;;;4.25;1.35;;;;;;;11.15;77.13;96901.36;1725757;82;27407;-75
2022/10/02 05:20:36;;;;;;;2.45;1.37;;;;;;;11.16;77.05;96897.61;1732633;82;25803;-74
2022/10/02 05:23:19;;;;;;;2.52;1.47;;;;;;;11.17;77.09;96903.31;1732539;82;25814;-74
2022/10/02 05:26:17;;;;;;;3.22;1.32;;;;;;;11.21;77.01;96899.64;1728974;82;25786;-75
2022/10/02 05:28:55;;;;;;;3.95;1.40;;;;;;;11.23;77.00;96905.62;1732834;82;25579;-76
2022/10/02 05:31:54;;;;;;;2.45;1.30;;;;;;;11.24;76.87;96910.49;1723309;82;27463;-75
2022/10/02 05:34:30;;;;;;;1.70;1.32;;;;;;;11.25;76.87;96902.69;1728771;82;26005;-76
2022/10/02 05:37:17;;;;;;;4.58;1.50;;;;;;;11.25;76.83;96916.20;1732930;79;25802;-75
2022/10/02 05:40:09;;;;;;;4.35;1.30;;;;;;;11.27;76.74;96919.50;1685962;85;25718;-75
2022/10/02 05:42:41;;;;;;;2.00;1.17;;;;;;;11.30;76.67;96915.00;1685886;85;25796;-75
2022/10/02 05:45:50;;;;;;;5.87;1.30;;;;;;;11.32;76.63;96927.77;1685973;85;27477;-75
2022/10/02 05:48:33;;;;;;;3.33;1.27;;;;;;;11.35;76.55;96927.31;1685873;85;26051;-74
2022/10/02 05:51:11;;;;;;;3.10;1.80;;;;;;;11.37;76.34;96929.24;1685937;85;25803;-74
2022/10/02 05:53:46;;;;;;;7.92;3.08;;;;;;;11.38;76.24;96934.95;1618089;88;25863;-74
2022/10/02 05:56:26;;;;;;;5.33;1.95;;;;;;;11.40;76.21;96930.97;1584525;90;25896;-75
2022/10/02 05:59:01;;;;;;;2.55;1.25;;;;;;;11.43;76.08;96937.80;1566398;90;27426;-75
2022/10/02 06:01:39;;;;;;;3.45;1.52;;;;;;;11.45;76.02;96941.11;1490075;96;25758;-74
2022/10/02 06:04:18;;;;;;;4.08;1.67;;;;;;;11.46;75.92;96940.88;1482083;96;25858;-74
2022/10/02 06:06:53;;;;;;;3.42;1.35;;;;;;;11.48;75.84;96941.45;1484417;96;25861;-75
2022/10/02 06:09:30;;;;;;;3.70;1.75;;;;;;;11.51;75.80;96944.23;1484756;96;26069;-75
2022/10/02 06:12:25;;;;;;;1.92;1.30;;;;;;;11.54;75.75;96947.84;1485098;96;27395;-74
2022/10/02 06:15:08;;;;;;;5.12;1.57;;;;;;;11.58;75.89;96946.34;1483309;96;25865;-74
2022/10/02 06:17:41;;;;;;;5.00;2.37;;;;;;;11.60;76.02;96950.97;1484726;96;25683;-74
2022/10/02 06:20:28;;;;;;;3.85;1.80;;;;;;;11.60;75.98;96948.79;1493770;95;25887;-74
2022/10/02 06:23:06;;;;;;;3.90;1.70;;;;;;;11.60;75.87;96956.38;1468056;97;25865;-74
2022/10/02 06:25:41;;;;;;;3.52;1.60;;;;;;;11.61;75.91;96967.48;1467895;97;27524;-74
2022/10/02 06:28:31;;;;;;;3.55;1.50;;;;;;;11.61;76.10;96966.66;1466328;97;25647;-75
2022/10/02 06:31:09;;;;;;;2.90;1.62;;;;;;;11.58;76.31;96958.51;1450052;98;25883;-74
2022/10/02 06:33:35;;;;;;;7.40;2.00;;;;;;;11.49;76.35;96972.02;1420745;100;25847;-75
2022/10/02 06:36:25;;;;;;;2.80;2.10;;;;;;;11.48;76.62;96981.17;1433761;99;25613;-75
2022/10/02 06:39:30;;;;;;;3.60;2.12;;;;;;;11.43;76.60;96982.39;1481118;96;27500;-75
2022/10/02 06:42:35;;;;;;;2.85;1.95;;;;;;;11.37;76.78;96985.46;1482985;95;25911;-74
2022/10/02 06:45:38;;;;;;;2.65;1.60;;;;;;;11.36;76.75;96988.39;1480364;96;25887;-76
2022/10/02 06:48:24;;;;;;;4.65;2.00;;;;;;;11.32;76.89;96994.80;1480348;96;25842;-74
2022/10/02 06:51:18;;;;;;;2.77;1.92;;;;;;;11.32;77.02;96990.73;1474415;97;25791;-74
2022/10/02 06:54:18;;;;;;;3.50;1.65;;;;;;;11.33;77.31;97002.38;1505045;93;27669;-76
2022/10/02 06:57:11;;;;;;;5.35;2.22;;;;;;;11.30;77.40;97001.47;1525665;93;25864;-75
2022/10/02 07:00:04;;;;;;;4.92;1.90;;;;;;;11.30;77.45;97008.22;1572560;90;25973;-74
2022/10/02 07:02:59;;;;;;;6.80;2.55;;;;;;;11.30;77.82;97017.16;1493319;93;25909;-75
2022/10/02 07:06:06;;;;;;;5.35;2.20;;;;;;;11.30;77.71;97031.19;1490861;95;25985;-75
2022/10/02 07:08:44;;;;;;;4.67;2.15;;;;;;;11.27;77.68;97014.06;1490166;95;26873;-76
2022/10/02 07:11:22;;;;;;;2.87;1.80;;;;;;;11.26;77.56;97017.81;1500367;93;25844;-75
2022/10/02 07:14:29;;;;;;;5.08;2.25;;;;;;;11.27;77.56;97020.83;1493543;95;25891;-75
2022/10/02 07:17:26;;;;;;;5.15;1.60;;;;;;;11.30;77.40;97021.73;1506505;93;25915;-75
2022/10/02 07:20:16;;;;;;;4.35;1.32;;;;;;;11.34;77.21;97027.83;1526928;93;25975;-75
2022/10/02 07:23:15;;;;;;;3.05;1.40;;;;;;;11.39;76.60;97026.61;1528082;93;27719;-75
2022/10/02 07:26:06;;;;;;;3.95;1.50;;;;;;;11.41;76.25;97036.67;1556204;90;25839;-77
2022/10/02 07:28:47;;;;;;;4.37;1.65;;;;;;;11.46;76.11;97033.30;1611683;87;26063;-77
2022/10/02 07:31:37;;;;;;;4.72;1.72;;;;;;;11.51;75.87;97030.73;1636767;87;25951;-74
2022/10/02 07:34:20;;;;;;;4.90;1.77;;;;;;;11.55;75.61;97031.94;1636763;87;26469;-74
2022/10/02 07:37:03;;;;;;;3.72;1.95;;;;;;;11.60;75.64;97036.13;1635031;87;27419;-74
2022/10/02 07:39:58;;;;;;;6.55;1.95;;;;;;;11.64;75.60;97045.44;1585009;88;25935;-74
2022/10/02 07:42:32;;;;;;;2.05;1.40;;;;;;;11.66;75.45;97049.27;1547539;91;25899;-74
2022/10/02 07:45:25;;;;;;;7.22;1.70;;;;;;;11.67;75.46;97043.64;1568445;91;25900;-74
2022/10/02 07:47:57;;;;;;;5.85;1.98;;;;;;;11.71;75.62;97036.70;1548045;92;26620;-74
2022/10/02 07:50:53;;;;;;;3.85;1.67;;;;;;;11.80;75.55;97038.09;1575039;87;28273;-74
2022/10/02 07:53:37;;;;;;;6.10;1.65;;;;;;;11.88;75.58;97033.72;1631898;87;25794;-75
2022/10/02 07:56:09;;;;;;;3.00;1.20;;;;;;;11.97;75.33;97036.09;1605781;89;25871;-75
2022/10/02 07:58:53;;;;;;;8.45;1.35;;;;;;;12.01;75.04;97044.06;1606898;89;25746;-75
2022/10/02 08:01:28;;;;;;;4.65;1.55;;;;;;;12.04;74.77;97031.44;1605042;89;25758;-75
2022/10/02 08:04:05;;;;;;;4.80;1.50;;;;;;;12.07;74.60;97044.52;1593569;90;27604;-76
2022/10/02 08:06:33;;;;;;;7.17;1.67;;;;;;;12.09;74.55;97042.38;1678179;84;25799;-75
2022/10/02 08:09:13;;;;;;;2.37;1.20;;;;;;;12.09;74.21;97034.27;1649016;86;25823;-75
2022/10/02 08:11:45;;;;;;;3.00;1.25;;;;;;;12.10;74.09;97032.68;1648721;85;25922;-75
2022/10/02 08:14:24;;;;;;;10.10;1.50;;;;;;;12.16;74.12;97029.59;1649053;86;26072;-75
2022/10/02 08:16:53;;;;;;;5.37;1.57;;;;;;;12.27;74.06;97031.52;1673384;82;28104;-76
2022/10/02 08:19:34;;;;;;;3.87;1.92;;;;;;;12.52;74.17;97029.46;1704202;82;25764;-75
2022/10/02 08:22:24;;;;;;;5.33;1.47;;;;;;;12.78;73.89;97027.38;1704457;84;25807;-75
2022/10/02 08:24:56;;;;;;;5.15;1.40;;;;;;;12.94;73.43;97024.77;1703878;83;25881;-76
2022/10/02 08:28:04;;;;;;;2.90;1.60;;;;;;;12.99;72.95;97032.21;1606465;89;26755;-76
2022/10/02 08:30:31;;;;;;;7.65;1.67;;;;;;;12.97;72.86;97034.32;1606769;88;27534;-77
2022/10/02 08:32:58;;;;;;;5.10;1.52;;;;;;;12.95;72.58;97035.91;1606048;89;25905;-76
2022/10/02 08:35:39;;;;;;;5.45;1.80;;;;;;;12.98;72.54;97030.55;1606446;89;25837;-78
2022/10/02 08:38:23;;;;;;;3.67;1.45;;;;;;;12.94;72.31;97028.02;1581198;90;26480;-76
2022/10/02 08:41:15;;;;;;;6.25;1.70;;;;;;;12.90;72.05;97024.97;1633205;87;25945;-76
2022/10/02 08:44:20;;;;;;;3.30;1.55;;;;;;;12.86;71.90;97021.60;1625832;87;27488;-76
2022/10/02 08:47:44;;;;;;;4.37;1.70;;;;;;;12.94;72.14;97030.72;1626024;88;25836;-77
2022/10/02 08:50:48;;;;;;;3.08;1.42;;;;;;;13.06;71.90;97027.48;1626294;88;26561;-78
2022/10/02 08:53:47;;;;;;;3.72;1.70;;;;;;;13.11;71.65;97016.77;1624341;87;25830;-77
2022/10/02 08:56:36;;;;;;;3.72;1.42;;;;;;;13.33;71.49;97017.84;1599292;89;25571;-76
2022/10/02 08:59:27;;;;;;;5.47;1.30;;;;;;;13.44;71.24;97009.91;1598938;89;27416;-77
2022/10/02 09:02:43;;;;;;;4.67;1.40;;;;;;;13.68;71.00;97008.80;1568131;91;26155;-77
2022/10/02 09:05:44;;;;;;;6.03;1.87;;;;;;;14.07;71.07;96996.27;1568098;91;26141;-78
2022/10/02 09:08:56;;;;;;;7.87;1.60;;;;;;;14.39;70.51;97003.34;1568202;91;25939;-77
2022/10/02 09:11:47;;;;;;;6.70;1.40;;;;;;;14.36;69.99;96996.53;1568410;91;25822;-77
2022/10/02 09:14:49;;;;;;;4.78;1.50;;;;;;;14.53;69.57;96988.41;1568280;91;27488;-78
2022/10/02 09:17:39;;;;;;;6.65;2.00;;;;;;;14.69;69.36;96987.60;1520171;94;32650;-76
2022/10/02 09:20:51;;;;;;;5.25;1.45;;;;;;;14.74;68.87;96990.38;1520203;94;25925;-77
2022/10/02 09:23:51;;;;;;;3.35;1.42;;;;;;;14.68;68.23;96988.67;1519945;93;26246;-78
2022/10/02 09:26:25;;;;;;;9.35;1.30;;;;;;;14.57;67.98;96985.51;1525351;94;25868;-77
2022/10/02 09:29:36;;;;;;;4.60;1.50;;;;;;;14.69;67.84;96983.53;1493703;95;28162;-77
2022/10/02 09:32:41;;;;;;;4.60;2.17;;;;;;;14.84;67.69;96984.84;1511176;94;25826;-77
2022/10/02 09:35:45;;;;;;;4.53;1.47;;;;;;;14.96;67.43;96990.47;1540495;91;25814;-76
2022/10/02 09:38:38;;;;;;;5.78;2.40;;;;;;;14.95;66.84;96983.92;1560778;91;26546;-76
2022/10/02 09:41:37;;;;;;;5.75;1.77;;;;;;;14.86;66.72;96982.67;1558516;92;25966;-78
2022/10/02 09:44:33;;;;;;;3.22;1.72;;;;;;;14.74;66.39;96987.66;1545768;92;27491;-78
2022/10/02 09:47:30;;;;;;;6.22;1.45;;;;;;;14.57;66.17;96993.66;1531333;93;25773;-76
2022/10/02 09:50:48;;;;;;;6.78;1.55;;;;;;;14.49;66.06;96973.67;1532295;93;25829;-76
2022/10/02 09:53:35;;;;;;;7.83;1.85;;;;;;;14.42;66.00;96982.53;1579603;89;26380;-76
2022/10/02 09:56:22;;;;;;;7.20;1.90;;;;;;;14.36;66.12;96979.42;1607403;89;25525;-77
2022/10/02 09:59:16;;;;;;;7.72;1.70;;;;;;;14.38;66.40;96982.69;1589907;90;26883;-76
2022/10/02 10:01:54;;;;;;;6.20;1.95;;;;;;;14.34;66.36;96985.09;1591353;89;25839;-78
2022/10/02 10:04:53;;;;;;;4.28;1.50;;;;;;;14.30;66.49;96989.36;1588577;90;25816;-77
2022/10/02 10:07:50;;;;;;;3.65;1.27;;;;;;;14.28;66.26;96986.59;1591697;90;25783;-78
2022/10/02 10:10:37;;;;;;;3.27;1.67;;;;;;;14.25;66.15;96987.10;1605174;87;72273;-84
2022/10/02 10:13:38;;;;;;;3.25;1.25;;;;;;;14.22;65.94;96995.20;1579472;90;27476;-83
2022/10/02 10:16:31;;;;;;;4.72;1.35;;;;;;;14.23;65.95;96997.37;1579825;90;25951;-83
2022/10/02 10:19:24;;;;;;;5.55;2.10;;;;;;;14.31;66.31;96981.50;1580004;90;25810;-86
2022/10/02 10:22:31;;;;;;;2.85;1.62;;;;;;;14.59;66.37;96980.66;1581431;90;25815;-84
2022/10/02 10:25:24;;;;;;;4.37;1.52;;;;;;;14.66;65.92;96986.73;1614612;86;25856;-83
2022/10/02 10:28:24;;;;;;;8.33;1.70;;;;;;;14.61;65.59;96989.35;1649573;86;27156;-83
2022/10/02 10:31:36;;;;;;;5.28;1.67;;;;;;;14.52;65.47;96990.84;1685012;85;25841;-84
2022/10/02 10:34:34;;;;;;;6.30;1.70;;;;;;;14.46;65.49;96974.19;1685072;85;25792;-84
2022/10/02 10:40:28;;;;;;;4.50;1.55;;;;;;;14.49;65.17;96977.75;1684998;84;25746;-83
2022/10/02 10:43:50;;;;;;;4.72;1.92;;;;;;;14.46;65.11;96974.72;1685215;84;27573;-84
2022/10/02 10:46:46;;;;;;;3.08;1.32;;;;;;;14.48;64.88;96980.20;1685082;84;26036;-84
2022/10/02 10:49:37;;;;;;;4.78;1.35;;;;;;;14.57;65.08;96980.07;1685192;85;25847;-83
2022/10/02 10:52:15;;;;;;;4.30;1.37;;;;;;;14.78;65.03;96973.88;1685257;84;25948;-82
2022/10/02 10:55:15;;;;;;;5.33;1.57;;;;;;;15.08;65.14;96968.63;1723219;81;25846;-82
2022/10/02 10:57:50;;;;;;;5.22;1.70;;;;;;;15.27;65.00;96963.17;1757722;81;27606;-84
2022/10/02 11:00:24;;;;;;;3.08;1.32;;;;;;;15.38;64.50;96966.84;1757697;81;25684;-84
2022/10/02 11:03:29;;;;;;;4.85;1.30;;;;;;;15.37;63.82;96963.83;1757433;81;25799;-84
2022/10/02 11:06:15;;;;;;;6.67;1.90;;;;;;;15.32;63.72;96967.33;1757328;81;26449;-82
2022/10/02 11:09:05;;;;;;;6.83;2.00;;;;;;;15.24;63.55;96962.30;1756399;81;25688;-83
2022/10/02 11:11:56;;;;;;;4.12;1.92;;;;;;;15.16;63.67;96964.11;1754904;81;28189;-83
2022/10/02 11:14:56;;;;;;;3.92;1.85;;;;;;;15.08;63.60;96964.02;1755947;81;25697;-83
2022/10/02 11:18:01;;;;;;;4.47;1.77;;;;;;;15.09;64.00;96966.20;1756034;81;25697;-82
2022/10/02 11:21:06;;;;;;;5.47;1.80;;;;;;;15.12;63.74;96966.49;1756082;81;25829;-84
2022/10/02 11:23:43;;;;;;;5.30;1.40;;;;;;;15.09;63.47;96966.20;1755935;81;25274;-84
2022/10/02 11:26:57;;;;;;;2.98;1.90;;;;;;;15.06;63.44;96966.69;1756069;81;28172;-83
2022/10/02 11:29:53;;;;;;;6.55;1.40;;;;;;;15.10;63.41;96959.66;1755821;81;25704;-84
2022/10/02 11:33:09;;;;;;;6.10;1.90;;;;;;;15.21;63.40;96960.11;1756085;81;25796;-85
2022/10/02 11:36:03;;;;;;;3.72;1.50;;;;;;;15.32;63.04;96948.29;1694679;84;25806;-83
2022/10/02 11:39:06;;;;;;;3.42;1.50;;;;;;;15.42;62.79;96952.50;1695059;84;25858;-85
2022/10/02 11:41:54;;;;;;;3.30;1.80;;;;;;;15.49;62.63;96938.16;1667947;84;27403;-85
2022/10/02 11:44:45;;;;;;;4.00;1.55;;;;;;;15.73;62.43;96939.27;1702244;84;25260;-87
2022/10/02 11:48:07;;;;;;;4.62;2.00;;;;;;;15.82;62.00;96936.37;1702344;84;25767;-85
2022/10/02 11:51:09;;;;;;;8.68;4.97;;;;;;;15.85;61.78;96945.39;1701950;84;25760;-85
2022/10/02 11:53:56;;;;;;;6.03;3.12;;;;;;;15.84;61.82;96947.83;1702196;84;25269;-86
2022/10/02 11:56:43;;;;;;;3.70;2.00;;;;;;;15.77;61.47;96941.77;1702265;83;27373;-84
2022/10/02 11:59:56;;;;;;;8.98;3.90;;;;;;;15.66;61.18;96954.98;1702236;84;25694;-84
2022/10/02 12:02:56;;;;;;;10.10;4.78;;;;;;;15.55;61.18;96945.06;1701816;84;25770;-84
2022/10/02 12:05:50;;;;;;;9.60;3.85;;;;;;;15.39;61.09;96944.01;1702297;83;26124;-85
2022/10/02 12:08:37;;;;;;;3.77;2.22;;;;;;;15.34;61.13;96948.02;1700776;84;25307;-85
2022/10/02 12:11:14;;;;;;;6.62;1.72;;;;;;;15.22;60.87;96941.34;1699677;84;27497;-85
2022/10/02 12:13:49;;;;;;;3.58;1.45;;;;;;;15.10;60.78;96944.17;1698266;84;26494;-85
2022/10/02 12:16:42;;;;;;;4.33;1.57;;;;;;;15.03;60.84;96944.08;1698638;84;25709;-84
2022/10/02 12:19:39;;;;;;;;;;;;;;;15.01;60.94;96946.22;1701041;84;25738;-85
2022/10/02 12:28:38;;;;;;;4.37;2.08;;;;;;;14.85;61.21;96941.66;1698283;84;25895;-85
2022/10/02 12:31:33;;;;;;;5.83;3.17;;;;;;;14.83;61.37;96937.83;1698080;84;25669;-85
2022/10/02 12:34:26;;;;;;;7.15;2.92;;;;;;;14.84;61.17;96926.42;1698294;84;25734;-85
2022/10/02 12:37:16;;;;;;;8.30;3.83;;;;;;;14.85;61.50;96924.00;1635924;87;25983;-85
2022/10/02 12:40:09;;;;;;;5.42;2.47;;;;;;;14.91;61.47;96925.70;1635821;87;27378;-85
2022/10/02 12:43:03;;;;;;;5.42;2.80;;;;;;;14.94;61.42;96915.16;1636023;87;25818;-85
2022/10/02 12:45:47;;;;;;;4.15;2.33;;;;;;;14.97;61.45;96902.97;1636028;87;25960;-83
2022/10/02 12:48:37;;;;;;;5.15;3.00;;;;;;;14.96;61.28;96913.02;1635633;87;26013;-85
2022/10/02 12:51:35;;;;;;;6.45;2.05;;;;;;;14.93;61.41;96934.42;1635981;87;25770;-83
2022/10/02 12:54:32;;;;;;;5.00;2.05;;;;;;;14.83;61.88;96939.72;1635119;87;27464;-83
2022/10/02 13:00:15;;;;;;;4.17;2.17;;;;;;;14.71;63.49;96931.67;1635726;87;25844;-84
2022/10/02 13:03:00;;;;;;;5.15;2.22;;;;;;;14.67;63.51;96919.64;1635970;87;25800;-83
2022/10/02 13:05:35;;;;;;;6.72;2.55;;;;;;;14.59;63.79;96911.39;1636041;87;26274;-83
2022/10/02 13:08:17;;;;;;;6.05;2.80;;;;;;;14.60;64.18;96917.11;1635683;87;27494;-84
2022/10/02 13:11:23;;;;;;;8.80;2.73;;;;;;;14.60;64.30;96914.40;1636315;87;25743;-84
2022/10/02 13:14:15;;;;;;;6.12;2.37;;;;;;;14.59;64.62;96918.19;1665820;84;25984;-83
2022/10/02 13:17:09;;;;;;;3.75;2.42;;;;;;;14.54;64.66;96911.84;1698752;84;25667;-84
2022/10/02 13:19:51;;;;;;;4.65;2.30;;;;;;;14.52;64.97;96913.44;1698539;84;25678;-84
2022/10/02 13:22:30;;;;;;;6.92;2.77;;;;;;;14.52;65.03;96906.65;1698713;84;27387;-84